sensor_id;sensor_type;location;lat;lon;timestamp;P1;durP1;ratioP1;P2;durP2;ratioP2
86039;SDS011;76638;53.338;-6.250;2024-02-21T00:00:37;4.30;;;1.00;;
86039;SDS011;76638;53.338;-6.250;2024-02-21T00:03:03;3.55;;;1.20;;
86039;SDS011;76638;53.338;-6.250;2024-02-21T00:05:30;6.90;;;1.33;;
86039;SDS011;76638;53.338;-6.250;2024-02-21T00:07:57;6.55;;;1.40;;
86039;SDS011;76638;53.338;-6.250;2024-02-21T00:10:24;6.82;;;1.45;;
86039;SDS011;76638;53.338;-6.250;2024-02-21T00:12:51;5.32;;;2.28;;
86039;SDS011;76638;53.338;-6.250;2024-02-21T00:15:17;3.60;;;1.38;;
86039;SDS011;76638;53.338;-6.250;2024-02-21T00:17:43;3.65;;;1.00;;
86039;SDS011;76638;53.338;-6.250;2024-02-21T00:20:09;3.75;;;0.95;;
86039;SDS011;76638;53.338;-6.250;2024-02-21T00:22:36;4.00;;;1.00;;
86039;SDS011;76638;53.338;-6.250;2024-02-21T00:25:02;6.05;;;1.00;;
86039;SDS011;76638;53.338;-6.250;2024-02-21T00:27:28;4.35;;;1.02;;
86039;SDS011;76638;53.338;-6.250;2024-02-21T00:29:53;6.20;;;0.80;;
86039;SDS011;76638;53.338;-6.250;2024-02-21T00:32:19;3.92;;;0.95;;
86039;SDS011;76638;53.338;-6.250;2024-02-21T00:34:46;4.70;;;0.88;;
86039;SDS011;76638;53.338;-6.250;2024-02-21T00:37:12;4.60;;;1.13;;
86039;SDS011;76638;53.338;-6.250;2024-02-21T00:39:37;6.22;;;0.70;;
86039;SDS011;76638;53.338;-6.250;2024-02-21T00:42:03;3.08;;;0.90;;
86039;SDS011;76638;53.338;-6.250;2024-02-21T00:44:29;3.40;;;0.93;;
86039;SDS011;76638;53.338;-6.250;2024-02-21T00:46:55;3.95;;;0.90;;
86039;SDS011;76638;53.338;-6.250;2024-02-21T00:49:21;5.45;;;0.90;;
86039;SDS011;76638;53.338;-6.250;2024-02-21T00:51:47;6.10;;;0.90;;
86039;SDS011;76638;53.338;-6.250;2024-02-21T00:54:13;6.78;;;1.15;;
86039;SDS011;76638;53.338;-6.250;2024-02-21T00:56:39;9.27;;;1.40;;
86039;SDS011;76638;53.338;-6.250;2024-02-21T00:59:04;5.40;;;0.90;;
86039;SDS011;76638;53.338;-6.250;2024-02-21T01:01:30;5.80;;;1.33;;
86039;SDS011;76638;53.338;-6.250;2024-02-21T01:03:56;6.45;;;1.20;;
86039;SDS011;76638;53.338;-6.250;2024-02-21T01:06:22;4.32;;;0.98;;
86039;SDS011;76638;53.338;-6.250;2024-02-21T01:08:49;6.43;;;1.10;;
86039;SDS011;76638;53.338;-6.250;2024-02-21T01:11:15;3.25;;;1.08;;
86039;SDS011;76638;53.338;-6.250;2024-02-21T01:13:41;1.52;;;0.80;;
86039;SDS011;76638;53.338;-6.250;2024-02-21T01:16:07;2.60;;;1.00;;
86039;SDS011;76638;53.338;-6.250;2024-02-21T01:18:33;5.53;;;1.55;;
86039;SDS011;76638;53.338;-6.250;2024-02-21T01:20:59;4.70;;;1.30;;
86039;SDS011;76638;53.338;-6.250;2024-02-21T01:23:25;4.05;;;1.17;;
86039;SDS011;76638;53.338;-6.250;2024-02-21T01:25:51;6.95;;;1.27;;
86039;SDS011;76638;53.338;-6.250;2024-02-21T01:28:18;7.65;;;1.80;;
86039;SDS011;76638;53.338;-6.250;2024-02-21T01:30:43;3.67;;;1.50;;
86039;SDS011;76638;53.338;-6.250;2024-02-21T01:33:09;5.32;;;1.60;;
86039;SDS011;76638;53.338;-6.250;2024-02-21T01:35:35;4.72;;;1.77;;
86039;SDS011;76638;53.338;-6.250;2024-02-21T01:38:01;7.05;;;2.03;;
86039;SDS011;76638;53.338;-6.250;2024-02-21T01:40:27;4.63;;;1.80;;
86039;SDS011;76638;53.338;-6.250;2024-02-21T01:42:55;6.35;;;1.65;;
86039;SDS011;76638;53.338;-6.250;2024-02-21T01:45:21;6.70;;;2.08;;
86039;SDS011;76638;53.338;-6.250;2024-02-21T01:47:47;5.93;;;1.60;;
86039;SDS011;76638;53.338;-6.250;2024-02-21T01:50:13;5.45;;;1.30;;
86039;SDS011;76638;53.338;-6.250;2024-02-21T01:52:40;4.57;;;1.33;;
86039;SDS011;76638;53.338;-6.250;2024-02-21T01:55:07;5.82;;;1.73;;
86039;SDS011;76638;53.338;-6.250;2024-02-21T01:57:33;5.70;;;1.70;;
86039;SDS011;76638;53.338;-6.250;2024-02-21T01:59:59;8.32;;;2.00;;
86039;SDS011;76638;53.338;-6.250;2024-02-21T02:02:25;4.50;;;1.80;;
86039;SDS011;76638;53.338;-6.250;2024-02-21T02:04:51;4.07;;;1.45;;
86039;SDS011;76638;53.338;-6.250;2024-02-21T02:07:18;3.80;;;1.45;;
86039;SDS011;76638;53.338;-6.250;2024-02-21T02:09:44;5.22;;;1.63;;
86039;SDS011;76638;53.338;-6.250;2024-02-21T02:12:09;8.25;;;2.00;;
86039;SDS011;76638;53.338;-6.250;2024-02-21T02:14:35;8.07;;;2.17;;
86039;SDS011;76638;53.338;-6.250;2024-02-21T02:17:01;8.23;;;3.45;;
86039;SDS011;76638;53.338;-6.250;2024-02-21T02:19:27;5.95;;;3.05;;
86039;SDS011;76638;53.338;-6.250;2024-02-21T02:22:00;8.82;;;2.78;;
86039;SDS011;76638;53.338;-6.250;2024-02-21T02:24:31;7.35;;;2.60;;
86039;SDS011;76638;53.338;-6.250;2024-02-21T02:26:57;8.77;;;2.47;;
86039;SDS011;76638;53.338;-6.250;2024-02-21T02:29:22;4.63;;;1.85;;
86039;SDS011;76638;53.338;-6.250;2024-02-21T02:31:49;5.03;;;1.60;;
86039;SDS011;76638;53.338;-6.250;2024-02-21T02:34:15;1.08;;;0.90;;
86039;SDS011;76638;53.338;-6.250;2024-02-21T02:36:40;3.95;;;1.30;;
86039;SDS011;76638;53.338;-6.250;2024-02-21T02:39:06;3.50;;;1.25;;
86039;SDS011;76638;53.338;-6.250;2024-02-21T02:41:34;2.67;;;0.90;;
86039;SDS011;76638;53.338;-6.250;2024-02-21T02:44:01;4.30;;;1.20;;
86039;SDS011;76638;53.338;-6.250;2024-02-21T02:46:27;2.53;;;1.10;;
86039;SDS011;76638;53.338;-6.250;2024-02-21T02:48:53;2.95;;;1.52;;
86039;SDS011;76638;53.338;-6.250;2024-02-21T02:51:19;2.00;;;1.02;;
86039;SDS011;76638;53.338;-6.250;2024-02-21T02:53:45;4.13;;;1.17;;
86039;SDS011;76638;53.338;-6.250;2024-02-21T02:56:14;3.55;;;1.15;;
86039;SDS011;76638;53.338;-6.250;2024-02-21T02:58:42;2.58;;;1.15;;
86039;SDS011;76638;53.338;-6.250;2024-02-21T03:01:11;1.60;;;0.82;;
86039;SDS011;76638;53.338;-6.250;2024-02-21T03:03:37;1.02;;;0.40;;
86039;SDS011;76638;53.338;-6.250;2024-02-21T03:06:03;0.82;;;0.47;;
86039;SDS011;76638;53.338;-6.250;2024-02-21T03:08:29;0.57;;;0.30;;
86039;SDS011;76638;53.338;-6.250;2024-02-21T03:10:55;0.65;;;0.30;;
86039;SDS011;76638;53.338;-6.250;2024-02-21T03:13:21;0.63;;;0.30;;
86039;SDS011;76638;53.338;-6.250;2024-02-21T03:15:47;0.40;;;0.20;;
86039;SDS011;76638;53.338;-6.250;2024-02-21T03:18:13;0.38;;;0.20;;
86039;SDS011;76638;53.338;-6.250;2024-02-21T03:20:39;0.30;;;0.30;;
86039;SDS011;76638;53.338;-6.250;2024-02-21T03:23:04;0.20;;;0.20;;
86039;SDS011;76638;53.338;-6.250;2024-02-21T03:25:30;1.60;;;0.30;;
86039;SDS011;76638;53.338;-6.250;2024-02-21T03:27:56;1.35;;;0.50;;
86039;SDS011;76638;53.338;-6.250;2024-02-21T03:30:22;0.50;;;0.50;;
86039;SDS011;76638;53.338;-6.250;2024-02-21T03:32:48;1.00;;;0.35;;
86039;SDS011;76638;53.338;-6.250;2024-02-21T03:35:14;0.90;;;0.60;;
86039;SDS011;76638;53.338;-6.250;2024-02-21T03:37:41;0.70;;;0.40;;
86039;SDS011;76638;53.338;-6.250;2024-02-21T03:40:08;0.47;;;0.40;;
86039;SDS011;76638;53.338;-6.250;2024-02-21T03:42:34;0.85;;;0.50;;
86039;SDS011;76638;53.338;-6.250;2024-02-21T03:45:00;0.47;;;0.35;;
86039;SDS011;76638;53.338;-6.250;2024-02-21T03:47:26;0.75;;;0.40;;
86039;SDS011;76638;53.338;-6.250;2024-02-21T03:49:51;0.73;;;0.50;;
86039;SDS011;76638;53.338;-6.250;2024-02-21T03:52:17;0.30;;;0.30;;
86039;SDS011;76638;53.338;-6.250;2024-02-21T03:54:43;0.40;;;0.40;;
86039;SDS011;76638;53.338;-6.250;2024-02-21T03:57:10;0.22;;;0.20;;
86039;SDS011;76638;53.338;-6.250;2024-02-21T03:59:35;0.30;;;0.28;;
86039;SDS011;76638;53.338;-6.250;2024-02-21T04:02:01;0.35;;;0.30;;
86039;SDS011;76638;53.338;-6.250;2024-02-21T04:04:29;0.25;;;0.25;;
86039;SDS011;76638;53.338;-6.250;2024-02-21T04:06:55;0.38;;;0.30;;
86039;SDS011;76638;53.338;-6.250;2024-02-21T04:09:21;0.47;;;0.47;;
86039;SDS011;76638;53.338;-6.250;2024-02-21T04:11:47;0.20;;;0.20;;
86039;SDS011;76638;53.338;-6.250;2024-02-21T04:14:13;1.35;;;0.20;;
86039;SDS011;76638;53.338;-6.250;2024-02-21T04:16:39;0.20;;;0.10;;
86039;SDS011;76638;53.338;-6.250;2024-02-21T04:19:04;0.25;;;0.20;;
86039;SDS011;76638;53.338;-6.250;2024-02-21T04:21:30;0.10;;;0.10;;
86039;SDS011;76638;53.338;-6.250;2024-02-21T04:23:56;0.10;;;0.10;;
86039;SDS011;76638;53.338;-6.250;2024-02-21T04:26:22;0.00;;;0.00;;
86039;SDS011;76638;53.338;-6.250;2024-02-21T04:28:48;0.30;;;0.20;;
86039;SDS011;76638;53.338;-6.250;2024-02-21T04:31:13;0.10;;;0.10;;
86039;SDS011;76638;53.338;-6.250;2024-02-21T04:33:39;0.20;;;0.10;;
86039;SDS011;76638;53.338;-6.250;2024-02-21T04:36:05;0.20;;;0.10;;
86039;SDS011;76638;53.338;-6.250;2024-02-21T04:38:31;0.00;;;0.00;;
86039;SDS011;76638;53.338;-6.250;2024-02-21T04:40:57;0.00;;;0.00;;
86039;SDS011;76638;53.338;-6.250;2024-02-21T04:43:24;1.17;;;0.10;;
86039;SDS011;76638;53.338;-6.250;2024-02-21T04:45:50;1.60;;;0.20;;
86039;SDS011;76638;53.338;-6.250;2024-02-21T04:48:18;0.10;;;0.10;;
86039;SDS011;76638;53.338;-6.250;2024-02-21T04:50:45;0.10;;;0.10;;
86039;SDS011;76638;53.338;-6.250;2024-02-21T04:53:10;0.05;;;0.05;;
86039;SDS011;76638;53.338;-6.250;2024-02-21T04:55:36;0.00;;;0.00;;
86039;SDS011;76638;53.338;-6.250;2024-02-21T04:58:02;0.10;;;0.10;;
86039;SDS011;76638;53.338;-6.250;2024-02-21T05:00:28;1.10;;;0.10;;
86039;SDS011;76638;53.338;-6.250;2024-02-21T05:02:54;0.10;;;0.10;;
86039;SDS011;76638;53.338;-6.250;2024-02-21T05:05:20;0.00;;;0.00;;
86039;SDS011;76638;53.338;-6.250;2024-02-21T05:07:46;0.00;;;0.00;;
86039;SDS011;76638;53.338;-6.250;2024-02-21T05:10:12;0.20;;;0.20;;
86039;SDS011;76638;53.338;-6.250;2024-02-21T05:12:37;0.17;;;0.10;;
86039;SDS011;76638;53.338;-6.250;2024-02-21T05:15:03;0.10;;;0.10;;
86039;SDS011;76638;53.338;-6.250;2024-02-21T05:17:30;0.10;;;0.10;;
86039;SDS011;76638;53.338;-6.250;2024-02-21T05:19:55;0.00;;;0.00;;
86039;SDS011;76638;53.338;-6.250;2024-02-21T05:22:21;0.70;;;0.10;;
86039;SDS011;76638;53.338;-6.250;2024-02-21T05:24:47;0.30;;;0.13;;
86039;SDS011;76638;53.338;-6.250;2024-02-21T05:27:13;0.08;;;0.08;;
86039;SDS011;76638;53.338;-6.250;2024-02-21T05:29:39;0.38;;;0.10;;
86039;SDS011;76638;53.338;-6.250;2024-02-21T05:32:05;0.08;;;0.00;;
86039;SDS011;76638;53.338;-6.250;2024-02-21T05:34:31;0.28;;;0.05;;
86039;SDS011;76638;53.338;-6.250;2024-02-21T05:36:57;1.25;;;0.38;;
86039;SDS011;76638;53.338;-6.250;2024-02-21T05:39:25;0.60;;;0.20;;
86039;SDS011;76638;53.338;-6.250;2024-02-21T05:41:50;0.30;;;0.13;;
86039;SDS011;76638;53.338;-6.250;2024-02-21T05:44:16;0.20;;;0.20;;
86039;SDS011;76638;53.338;-6.250;2024-02-21T05:46:42;0.40;;;0.28;;
86039;SDS011;76638;53.338;-6.250;2024-02-21T05:49:08;0.30;;;0.30;;
86039;SDS011;76638;53.338;-6.250;2024-02-21T05:51:34;0.30;;;0.30;;
86039;SDS011;76638;53.338;-6.250;2024-02-21T05:54:00;0.20;;;0.20;;
86039;SDS011;76638;53.338;-6.250;2024-02-21T05:56:26;0.60;;;0.30;;
86039;SDS011;76638;53.338;-6.250;2024-02-21T05:58:52;0.20;;;0.20;;
86039;SDS011;76638;53.338;-6.250;2024-02-21T06:01:18;0.30;;;0.30;;
86039;SDS011;76638;53.338;-6.250;2024-02-21T06:03:44;0.25;;;0.25;;
86039;SDS011;76638;53.338;-6.250;2024-02-21T06:06:09;0.28;;;0.28;;
86039;SDS011;76638;53.338;-6.250;2024-02-21T06:08:35;0.40;;;0.40;;
86039;SDS011;76638;53.338;-6.250;2024-02-21T06:11:01;0.93;;;0.40;;
86039;SDS011;76638;53.338;-6.250;2024-02-21T06:13:27;0.30;;;0.30;;
86039;SDS011;76638;53.338;-6.250;2024-02-21T06:15:53;1.13;;;0.50;;
86039;SDS011;76638;53.338;-6.250;2024-02-21T06:18:19;0.40;;;0.40;;
86039;SDS011;76638;53.338;-6.250;2024-02-21T06:20:45;1.35;;;0.50;;
86039;SDS011;76638;53.338;-6.250;2024-02-21T06:23:12;0.77;;;0.40;;
86039;SDS011;76638;53.338;-6.250;2024-02-21T06:25:38;3.30;;;0.60;;
86039;SDS011;76638;53.338;-6.250;2024-02-21T06:28:05;1.67;;;0.60;;
86039;SDS011;76638;53.338;-6.250;2024-02-21T06:30:31;0.88;;;0.47;;
86039;SDS011;76638;53.338;-6.250;2024-02-21T06:32:57;0.73;;;0.52;;
86039;SDS011;76638;53.338;-6.250;2024-02-21T06:35:24;4.20;;;0.60;;
86039;SDS011;76638;53.338;-6.250;2024-02-21T06:37:50;3.03;;;0.65;;
86039;SDS011;76638;53.338;-6.250;2024-02-21T06:40:17;1.75;;;0.60;;
86039;SDS011;76638;53.338;-6.250;2024-02-21T06:42:46;3.97;;;0.70;;
86039;SDS011;76638;53.338;-6.250;2024-02-21T06:45:12;3.78;;;0.73;;
86039;SDS011;76638;53.338;-6.250;2024-02-21T06:47:38;0.47;;;0.32;;
86039;SDS011;76638;53.338;-6.250;2024-02-21T06:50:04;0.98;;;0.45;;
86039;SDS011;76638;53.338;-6.250;2024-02-21T06:52:30;2.58;;;0.40;;
86039;SDS011;76638;53.338;-6.250;2024-02-21T06:54:56;0.30;;;0.30;;
86039;SDS011;76638;53.338;-6.250;2024-02-21T06:57:22;1.10;;;0.38;;
86039;SDS011;76638;53.338;-6.250;2024-02-21T06:59:48;0.70;;;0.30;;
86039;SDS011;76638;53.338;-6.250;2024-02-21T07:02:14;1.65;;;0.20;;
86039;SDS011;76638;53.338;-6.250;2024-02-21T07:04:40;0.63;;;0.30;;
86039;SDS011;76638;53.338;-6.250;2024-02-21T07:07:05;0.20;;;0.20;;
86039;SDS011;76638;53.338;-6.250;2024-02-21T07:09:31;0.17;;;0.17;;
86039;SDS011;76638;53.338;-6.250;2024-02-21T07:11:58;0.10;;;0.10;;
86039;SDS011;76638;53.338;-6.250;2024-02-21T07:14:24;0.00;;;0.00;;
86039;SDS011;76638;53.338;-6.250;2024-02-21T07:16:50;0.00;;;0.00;;
86039;SDS011;76638;53.338;-6.250;2024-02-21T07:19:16;0.00;;;0.00;;
86039;SDS011;76638;53.338;-6.250;2024-02-21T07:21:42;0.10;;;0.10;;
86039;SDS011;76638;53.338;-6.250;2024-02-21T07:24:08;0.10;;;0.10;;
86039;SDS011;76638;53.338;-6.250;2024-02-21T07:26:34;0.35;;;0.20;;
86039;SDS011;76638;53.338;-6.250;2024-02-21T07:29:00;0.10;;;0.10;;
86039;SDS011;76638;53.338;-6.250;2024-02-21T07:31:26;0.20;;;0.10;;
86039;SDS011;76638;53.338;-6.250;2024-02-21T07:33:52;0.10;;;0.10;;
86039;SDS011;76638;53.338;-6.250;2024-02-21T07:36:25;0.30;;;0.10;;
86039;SDS011;76638;53.338;-6.250;2024-02-21T07:38:53;0.10;;;0.10;;
86039;SDS011;76638;53.338;-6.250;2024-02-21T07:41:19;0.10;;;0.10;;
86039;SDS011;76638;53.338;-6.250;2024-02-21T07:43:45;0.10;;;0.10;;
86039;SDS011;76638;53.338;-6.250;2024-02-21T07:46:11;0.00;;;0.00;;
86039;SDS011;76638;53.338;-6.250;2024-02-21T07:48:36;0.10;;;0.08;;
86039;SDS011;76638;53.338;-6.250;2024-02-21T07:51:02;0.10;;;0.10;;
86039;SDS011;76638;53.338;-6.250;2024-02-21T07:53:28;0.10;;;0.10;;
86039;SDS011;76638;53.338;-6.250;2024-02-21T07:55:54;1.75;;;0.20;;
86039;SDS011;76638;53.338;-6.250;2024-02-21T07:58:20;0.32;;;0.20;;
86039;SDS011;76638;53.338;-6.250;2024-02-21T08:00:46;0.32;;;0.20;;
86039;SDS011;76638;53.338;-6.250;2024-02-21T08:03:11;0.82;;;0.20;;
86039;SDS011;76638;53.338;-6.250;2024-02-21T08:05:37;0.00;;;0.00;;
86039;SDS011;76638;53.338;-6.250;2024-02-21T08:08:03;0.00;;;0.00;;
86039;SDS011;76638;53.338;-6.250;2024-02-21T08:10:29;0.70;;;0.20;;
86039;SDS011;76638;53.338;-6.250;2024-02-21T08:12:55;0.30;;;0.20;;
86039;SDS011;76638;53.338;-6.250;2024-02-21T08:15:21;0.70;;;0.10;;
86039;SDS011;76638;53.338;-6.250;2024-02-21T08:17:50;0.68;;;0.20;;
86039;SDS011;76638;53.338;-6.250;2024-02-21T08:20:16;0.20;;;0.10;;
86039;SDS011;76638;53.338;-6.250;2024-02-21T08:22:42;0.52;;;0.20;;
86039;SDS011;76638;53.338;-6.250;2024-02-21T08:25:08;0.73;;;0.10;;
86039;SDS011;76638;53.338;-6.250;2024-02-21T08:27:33;0.00;;;0.00;;
86039;SDS011;76638;53.338;-6.250;2024-02-21T08:29:59;0.15;;;0.15;;
86039;SDS011;76638;53.338;-6.250;2024-02-21T08:32:25;0.08;;;0.08;;
86039;SDS011;76638;53.338;-6.250;2024-02-21T08:34:51;0.40;;;0.22;;
86039;SDS011;76638;53.338;-6.250;2024-02-21T08:37:17;0.55;;;0.20;;
86039;SDS011;76638;53.338;-6.250;2024-02-21T08:39:43;1.30;;;0.30;;
86039;SDS011;76638;53.338;-6.250;2024-02-21T08:42:08;0.10;;;0.10;;
86039;SDS011;76638;53.338;-6.250;2024-02-21T08:44:34;0.20;;;0.10;;
86039;SDS011;76638;53.338;-6.250;2024-02-21T08:47:00;0.43;;;0.22;;
86039;SDS011;76638;53.338;-6.250;2024-02-21T08:49:29;0.15;;;0.15;;
86039;SDS011;76638;53.338;-6.250;2024-02-21T08:51:54;1.55;;;0.43;;
86039;SDS011;76638;53.338;-6.250;2024-02-21T08:54:20;0.85;;;0.20;;
86039;SDS011;76638;53.338;-6.250;2024-02-21T08:56:46;0.77;;;0.40;;
86039;SDS011;76638;53.338;-6.250;2024-02-21T08:59:12;0.70;;;0.40;;
86039;SDS011;76638;53.338;-6.250;2024-02-21T09:01:37;0.30;;;0.25;;
86039;SDS011;76638;53.338;-6.250;2024-02-21T09:04:03;0.50;;;0.40;;
86039;SDS011;76638;53.338;-6.250;2024-02-21T09:06:30;0.32;;;0.20;;
86039;SDS011;76638;53.338;-6.250;2024-02-21T09:08:58;0.38;;;0.20;;
86039;SDS011;76638;53.338;-6.250;2024-02-21T09:11:24;0.40;;;0.30;;
86039;SDS011;76638;53.338;-6.250;2024-02-21T09:13:50;1.95;;;0.30;;
86039;SDS011;76638;53.338;-6.250;2024-02-21T09:16:16;1.42;;;0.52;;
86039;SDS011;76638;53.338;-6.250;2024-02-21T09:18:41;0.77;;;0.30;;
86039;SDS011;76638;53.338;-6.250;2024-02-21T09:21:07;2.22;;;0.60;;
86039;SDS011;76638;53.338;-6.250;2024-02-21T09:23:33;1.25;;;0.60;;
86039;SDS011;76638;53.338;-6.250;2024-02-21T09:25:59;1.98;;;0.68;;
86039;SDS011;76638;53.338;-6.250;2024-02-21T09:28:29;1.17;;;0.47;;
86039;SDS011;76638;53.338;-6.250;2024-02-21T09:30:54;0.50;;;0.40;;
86039;SDS011;76638;53.338;-6.250;2024-02-21T09:33:20;0.65;;;0.30;;
86039;SDS011;76638;53.338;-6.250;2024-02-21T09:35:46;2.00;;;0.28;;
86039;SDS011;76638;53.338;-6.250;2024-02-21T09:38:12;0.93;;;0.30;;
86039;SDS011;76638;53.338;-6.250;2024-02-21T09:40:38;0.50;;;0.43;;
86039;SDS011;76638;53.338;-6.250;2024-02-21T09:43:06;0.40;;;0.30;;
86039;SDS011;76638;53.338;-6.250;2024-02-21T09:45:35;0.75;;;0.40;;
86039;SDS011;76638;53.338;-6.250;2024-02-21T09:51:05;0.77;;;0.50;;
86039;SDS011;76638;53.338;-6.250;2024-02-21T09:53:32;1.05;;;0.30;;
86039;SDS011;76638;53.338;-6.250;2024-02-21T09:56:00;0.32;;;0.30;;
86039;SDS011;76638;53.338;-6.250;2024-02-21T09:58:26;1.45;;;0.30;;
86039;SDS011;76638;53.338;-6.250;2024-02-21T10:00:52;0.77;;;0.28;;
86039;SDS011;76638;53.338;-6.250;2024-02-21T10:03:18;0.20;;;0.13;;
86039;SDS011;76638;53.338;-6.250;2024-02-21T10:05:48;1.27;;;0.30;;
86039;SDS011;76638;53.338;-6.250;2024-02-21T10:08:19;0.55;;;0.40;;
86039;SDS011;76638;53.338;-6.250;2024-02-21T10:10:45;0.70;;;0.32;;
86039;SDS011;76638;53.338;-6.250;2024-02-21T10:13:27;0.65;;;0.40;;
86039;SDS011;76638;53.338;-6.250;2024-02-21T10:16:00;0.40;;;0.30;;
86039;SDS011;76638;53.338;-6.250;2024-02-21T10:18:27;1.05;;;0.40;;
86039;SDS011;76638;53.338;-6.250;2024-02-21T10:23:44;2.15;;;0.30;;
86039;SDS011;76638;53.338;-6.250;2024-02-21T10:26:10;1.35;;;0.45;;
86039;SDS011;76638;53.338;-6.250;2024-02-21T10:28:39;1.05;;;0.50;;
86039;SDS011;76638;53.338;-6.250;2024-02-21T10:31:31;1.15;;;0.40;;
86039;SDS011;76638;53.338;-6.250;2024-02-21T10:33:56;1.25;;;0.60;;
86039;SDS011;76638;53.338;-6.250;2024-02-21T10:36:23;1.13;;;0.60;;
86039;SDS011;76638;53.338;-6.250;2024-02-21T10:38:52;1.02;;;0.68;;
86039;SDS011;76638;53.338;-6.250;2024-02-21T10:41:19;1.33;;;0.47;;
86039;SDS011;76638;53.338;-6.250;2024-02-21T10:43:52;1.52;;;0.90;;
86039;SDS011;76638;53.338;-6.250;2024-02-21T10:46:20;2.20;;;0.30;;
86039;SDS011;76638;53.338;-6.250;2024-02-21T10:48:48;0.70;;;0.50;;
86039;SDS011;76638;53.338;-6.250;2024-02-21T10:51:17;0.82;;;0.43;;
86039;SDS011;76638;53.338;-6.250;2024-02-21T10:53:56;0.30;;;0.30;;
86039;SDS011;76638;53.338;-6.250;2024-02-21T10:56:28;1.00;;;0.57;;
86039;SDS011;76638;53.338;-6.250;2024-02-21T10:59:00;0.38;;;0.30;;
86039;SDS011;76638;53.338;-6.250;2024-02-21T11:01:28;1.67;;;0.50;;
86039;SDS011;76638;53.338;-6.250;2024-02-21T11:04:00;0.85;;;0.38;;
86039;SDS011;76638;53.338;-6.250;2024-02-21T11:06:28;0.40;;;0.40;;
86039;SDS011;76638;53.338;-6.250;2024-02-21T11:11:39;2.58;;;0.60;;
86039;SDS011;76638;53.338;-6.250;2024-02-21T11:14:08;0.80;;;0.52;;
86039;SDS011;76638;53.338;-6.250;2024-02-21T11:16:41;0.38;;;0.28;;
86039;SDS011;76638;53.338;-6.250;2024-02-21T11:21:50;1.58;;;0.70;;
86039;SDS011;76638;53.338;-6.250;2024-02-21T11:24:27;3.35;;;1.40;;
86039;SDS011;76638;53.338;-6.250;2024-02-21T11:26:54;0.60;;;0.60;;
86039;SDS011;76638;53.338;-6.250;2024-02-21T11:29:23;2.47;;;0.30;;
86039;SDS011;76638;53.338;-6.250;2024-02-21T11:31:54;0.40;;;0.40;;
86039;SDS011;76638;53.338;-6.250;2024-02-21T11:34:20;0.95;;;0.52;;
86039;SDS011;76638;53.338;-6.250;2024-02-21T11:36:47;0.70;;;0.57;;
86039;SDS011;76638;53.338;-6.250;2024-02-21T11:39:21;2.05;;;0.60;;
86039;SDS011;76638;53.338;-6.250;2024-02-21T11:42:05;0.40;;;0.38;;
86039;SDS011;76638;53.338;-6.250;2024-02-21T11:44:35;0.93;;;0.80;;
86039;SDS011;76638;53.338;-6.250;2024-02-21T11:47:05;0.98;;;0.60;;
86039;SDS011;76638;53.338;-6.250;2024-02-21T11:49:35;0.60;;;0.60;;
86039;SDS011;76638;53.338;-6.250;2024-02-21T11:54:33;1.77;;;0.60;;
86039;SDS011;76638;53.338;-6.250;2024-02-21T11:56:59;0.98;;;0.40;;
86039;SDS011;76638;53.338;-6.250;2024-02-21T11:59:26;1.10;;;0.60;;
86039;SDS011;76638;53.338;-6.250;2024-02-21T12:01:52;4.50;;;0.80;;
86039;SDS011;76638;53.338;-6.250;2024-02-21T12:04:19;3.25;;;1.45;;
86039;SDS011;76638;53.338;-6.250;2024-02-21T12:06:45;1.50;;;0.30;;
86039;SDS011;76638;53.338;-6.250;2024-02-21T12:09:15;1.95;;;0.50;;
86039;SDS011;76638;53.338;-6.250;2024-02-21T12:11:42;0.80;;;0.40;;
86039;SDS011;76638;53.338;-6.250;2024-02-21T12:14:08;5.38;;;0.50;;
86039;SDS011;76638;53.338;-6.250;2024-02-21T12:16:35;2.80;;;0.93;;
86039;SDS011;76638;53.338;-6.250;2024-02-21T12:19:03;0.85;;;0.45;;
86039;SDS011;76638;53.338;-6.250;2024-02-21T12:21:30;1.83;;;0.70;;
86039;SDS011;76638;53.338;-6.250;2024-02-21T12:24:10;0.82;;;0.40;;
86039;SDS011;76638;53.338;-6.250;2024-02-21T12:26:40;1.80;;;0.70;;
86039;SDS011;76638;53.338;-6.250;2024-02-21T12:29:06;3.22;;;0.60;;
86039;SDS011;76638;53.338;-6.250;2024-02-21T12:31:38;4.07;;;0.80;;
86039;SDS011;76638;53.338;-6.250;2024-02-21T12:34:04;5.53;;;0.98;;
86039;SDS011;76638;53.338;-6.250;2024-02-21T12:36:31;2.45;;;0.85;;
86039;SDS011;76638;53.338;-6.250;2024-02-21T12:38:57;3.53;;;0.65;;
86039;SDS011;76638;53.338;-6.250;2024-02-21T12:41:23;2.30;;;0.50;;
86039;SDS011;76638;53.338;-6.250;2024-02-21T12:43:51;2.50;;;0.60;;
86039;SDS011;76638;53.338;-6.250;2024-02-21T12:46:16;3.58;;;1.10;;
86039;SDS011;76638;53.338;-6.250;2024-02-21T12:48:42;5.55;;;1.58;;
86039;SDS011;76638;53.338;-6.250;2024-02-21T12:51:08;5.05;;;0.80;;
86039;SDS011;76638;53.338;-6.250;2024-02-21T12:53:34;3.88;;;1.25;;
86039;SDS011;76638;53.338;-6.250;2024-02-21T12:56:00;7.85;;;0.90;;
86039;SDS011;76638;53.338;-6.250;2024-02-21T12:58:26;4.32;;;0.80;;
86039;SDS011;76638;53.338;-6.250;2024-02-21T13:00:51;3.83;;;0.80;;
86039;SDS011;76638;53.338;-6.250;2024-02-21T13:03:18;3.75;;;1.13;;
86039;SDS011;76638;53.338;-6.250;2024-02-21T13:05:44;2.95;;;0.70;;
86039;SDS011;76638;53.338;-6.250;2024-02-21T13:08:10;3.13;;;0.85;;
86039;SDS011;76638;53.338;-6.250;2024-02-21T13:10:37;4.53;;;1.10;;
86039;SDS011;76638;53.338;-6.250;2024-02-21T13:13:03;5.63;;;1.20;;
86039;SDS011;76638;53.338;-6.250;2024-02-21T13:15:29;4.55;;;1.52;;
86039;SDS011;76638;53.338;-6.250;2024-02-21T13:17:57;7.07;;;1.23;;
86039;SDS011;76638;53.338;-6.250;2024-02-21T13:20:25;5.93;;;1.90;;
86039;SDS011;76638;53.338;-6.250;2024-02-21T13:22:51;5.38;;;1.17;;
86039;SDS011;76638;53.338;-6.250;2024-02-21T13:25:17;2.60;;;0.82;;
86039;SDS011;76638;53.338;-6.250;2024-02-21T13:27:45;6.38;;;1.60;;
86039;SDS011;76638;53.338;-6.250;2024-02-21T13:30:11;5.13;;;0.90;;
86039;SDS011;76638;53.338;-6.250;2024-02-21T13:32:38;2.58;;;1.00;;
86039;SDS011;76638;53.338;-6.250;2024-02-21T13:35:04;2.75;;;0.80;;
86039;SDS011;76638;53.338;-6.250;2024-02-21T13:37:31;4.45;;;1.40;;
86039;SDS011;76638;53.338;-6.250;2024-02-21T13:39:57;3.75;;;0.50;;
86039;SDS011;76638;53.338;-6.250;2024-02-21T13:42:23;3.97;;;0.90;;
86039;SDS011;76638;53.338;-6.250;2024-02-21T13:44:52;3.90;;;0.70;;
86039;SDS011;76638;53.338;-6.250;2024-02-21T13:47:18;5.13;;;1.70;;
86039;SDS011;76638;53.338;-6.250;2024-02-21T13:49:44;7.28;;;1.20;;
86039;SDS011;76638;53.338;-6.250;2024-02-21T13:52:11;5.30;;;1.35;;
86039;SDS011;76638;53.338;-6.250;2024-02-21T13:54:37;1.45;;;0.60;;
86039;SDS011;76638;53.338;-6.250;2024-02-21T13:57:02;3.22;;;0.77;;
86039;SDS011;76638;53.338;-6.250;2024-02-21T13:59:28;3.22;;;1.02;;
86039;SDS011;76638;53.338;-6.250;2024-02-21T14:01:55;3.13;;;0.82;;
86039;SDS011;76638;53.338;-6.250;2024-02-21T14:04:21;2.53;;;0.90;;
86039;SDS011;76638;53.338;-6.250;2024-02-21T14:06:47;2.47;;;0.80;;
86039;SDS011;76638;53.338;-6.250;2024-02-21T14:09:13;5.53;;;1.20;;
86039;SDS011;76638;53.338;-6.250;2024-02-21T14:11:39;4.05;;;1.08;;
86039;SDS011;76638;53.338;-6.250;2024-02-21T14:14:06;4.93;;;0.65;;
86039;SDS011;76638;53.338;-6.250;2024-02-21T14:16:33;5.18;;;1.08;;
86039;SDS011;76638;53.338;-6.250;2024-02-21T14:18:59;3.42;;;0.80;;
86039;SDS011;76638;53.338;-6.250;2024-02-21T14:21:26;4.45;;;0.80;;
86039;SDS011;76638;53.338;-6.250;2024-02-21T14:23:52;5.22;;;1.23;;
86039;SDS011;76638;53.338;-6.250;2024-02-21T14:26:22;5.28;;;1.20;;
86039;SDS011;76638;53.338;-6.250;2024-02-21T14:28:48;5.35;;;1.17;;
86039;SDS011;76638;53.338;-6.250;2024-02-21T14:31:14;3.80;;;1.92;;
86039;SDS011;76638;53.338;-6.250;2024-02-21T14:33:40;6.65;;;1.10;;
86039;SDS011;76638;53.338;-6.250;2024-02-21T14:36:06;5.90;;;1.00;;
86039;SDS011;76638;53.338;-6.250;2024-02-21T14:38:33;14.73;;;1.77;;
86039;SDS011;76638;53.338;-6.250;2024-02-21T14:41:00;7.95;;;2.20;;
86039;SDS011;76638;53.338;-6.250;2024-02-21T14:43:27;5.97;;;1.23;;